sensor_id;sensor_type;location;lat;lon;timestamp;P1;durP1;ratioP1;P2;durP2;ratioP2
16731;SDS011;8484;50.904;9.192;2022-08-21T00:01:47;2.20;;;2.00;;
16731;SDS011;8484;50.904;9.192;2022-08-21T00:04:13;3.90;;;2.20;;
16731;SDS011;8484;50.904;9.192;2022-08-21T00:06:42;2.47;;;2.20;;
16731;SDS011;8484;50.904;9.192;2022-08-21T00:09:09;3.33;;;2.60;;
16731;SDS011;8484;50.904;9.192;2022-08-21T00:11:36;2.50;;;2.30;;
16731;SDS011;8484;50.904;9.192;2022-08-21T00:14:05;4.10;;;2.60;;
16731;SDS011;8484;50.904;9.192;2022-08-21T00:16:33;3.33;;;2.73;;
16731;SDS011;8484;50.904;9.192;2022-08-21T00:19:00;3.13;;;2.53;;
16731;SDS011;8484;50.904;9.192;2022-08-21T00:21:27;2.90;;;2.60;;
16731;SDS011;8484;50.904;9.192;2022-08-21T00:23:55;4.33;;;2.73;;
16731;SDS011;8484;50.904;9.192;2022-08-21T00:26:22;3.70;;;2.43;;
16731;SDS011;8484;50.904;9.192;2022-08-21T00:28:49;3.07;;;2.73;;
16731;SDS011;8484;50.904;9.192;2022-08-21T00:31:16;4.60;;;2.67;;
16731;SDS011;8484;50.904;9.192;2022-08-21T00:33:43;2.97;;;2.73;;
16731;SDS011;8484;50.904;9.192;2022-08-21T00:36:11;3.60;;;3.00;;
16731;SDS011;8484;50.904;9.192;2022-08-21T00:38:38;2.90;;;2.70;;
16731;SDS011;8484;50.904;9.192;2022-08-21T00:41:07;3.00;;;2.80;;
16731;SDS011;8484;50.904;9.192;2022-08-21T00:43:36;2.90;;;2.60;;
16731;SDS011;8484;50.904;9.192;2022-08-21T00:46:05;3.63;;;3.10;;
16731;SDS011;8484;50.904;9.192;2022-08-21T00:48:33;4.70;;;3.40;;
16731;SDS011;8484;50.904;9.192;2022-08-21T00:51:03;4.80;;;3.47;;
16731;SDS011;8484;50.904;9.192;2022-08-21T00:53:32;3.90;;;3.50;;
16731;SDS011;8484;50.904;9.192;2022-08-21T00:56:01;4.17;;;3.77;;
16731;SDS011;8484;50.904;9.192;2022-08-21T00:58:29;4.67;;;3.97;;
16731;SDS011;8484;50.904;9.192;2022-08-21T01:01:00;4.63;;;4.23;;
16731;SDS011;8484;50.904;9.192;2022-08-21T01:03:30;4.33;;;3.93;;
16731;SDS011;8484;50.904;9.192;2022-08-21T01:05:58;3.90;;;3.60;;
16731;SDS011;8484;50.904;9.192;2022-08-21T01:08:25;4.63;;;4.00;;
16731;SDS011;8484;50.904;9.192;2022-08-21T01:10:54;4.60;;;3.90;;
16731;SDS011;8484;50.904;9.192;2022-08-21T01:13:21;3.97;;;3.50;;
16731;SDS011;8484;50.904;9.192;2022-08-21T01:15:53;4.17;;;3.50;;
16731;SDS011;8484;50.904;9.192;2022-08-21T01:18:22;3.30;;;3.00;;
16731;SDS011;8484;50.904;9.192;2022-08-21T01:23:35;3.17;;;2.83;;
16731;SDS011;8484;50.904;9.192;2022-08-21T01:26:03;3.50;;;2.97;;
16731;SDS011;8484;50.904;9.192;2022-08-21T01:28:33;3.90;;;2.90;;
16731;SDS011;8484;50.904;9.192;2022-08-21T01:31:03;4.07;;;2.93;;
16731;SDS011;8484;50.904;9.192;2022-08-21T01:33:33;3.50;;;3.20;;
16731;SDS011;8484;50.904;9.192;2022-08-21T01:36:00;3.10;;;2.90;;
16731;SDS011;8484;50.904;9.192;2022-08-21T01:38:28;3.40;;;3.10;;
16731;SDS011;8484;50.904;9.192;2022-08-21T01:40:56;3.27;;;2.87;;
16731;SDS011;8484;50.904;9.192;2022-08-21T01:43:23;3.10;;;2.80;;
16731;SDS011;8484;50.904;9.192;2022-08-21T01:45:50;3.57;;;2.90;;
16731;SDS011;8484;50.904;9.192;2022-08-21T01:48:17;5.07;;;3.37;;
16731;SDS011;8484;50.904;9.192;2022-08-21T01:50:44;3.77;;;3.33;;
16731;SDS011;8484;50.904;9.192;2022-08-21T01:53:11;3.70;;;3.40;;
16731;SDS011;8484;50.904;9.192;2022-08-21T01:55:39;3.53;;;3.23;;
16731;SDS011;8484;50.904;9.192;2022-08-21T01:58:06;3.87;;;3.03;;
16731;SDS011;8484;50.904;9.192;2022-08-21T02:00:33;4.10;;;3.70;;
16731;SDS011;8484;50.904;9.192;2022-08-21T02:03:00;3.73;;;3.43;;
16731;SDS011;8484;50.904;9.192;2022-08-21T02:05:27;5.00;;;3.90;;
16731;SDS011;8484;50.904;9.192;2022-08-21T02:07:54;4.97;;;4.27;;
16731;SDS011;8484;50.904;9.192;2022-08-21T02:10:23;4.83;;;4.33;;
16731;SDS011;8484;50.904;9.192;2022-08-21T02:12:53;4.83;;;4.43;;
16731;SDS011;8484;50.904;9.192;2022-08-21T02:15:22;4.40;;;4.00;;
16731;SDS011;8484;50.904;9.192;2022-08-21T02:17:49;5.50;;;4.57;;
16731;SDS011;8484;50.904;9.192;2022-08-21T02:20:19;4.47;;;4.07;;
16731;SDS011;8484;50.904;9.192;2022-08-21T02:22:47;6.73;;;4.53;;
16731;SDS011;8484;50.904;9.192;2022-08-21T02:25:15;5.37;;;4.50;;
16731;SDS011;8484;50.904;9.192;2022-08-21T02:27:43;5.93;;;4.37;;
16731;SDS011;8484;50.904;9.192;2022-08-21T02:30:14;5.73;;;4.73;;
16731;SDS011;8484;50.904;9.192;2022-08-21T02:32:43;5.63;;;4.23;;
16731;SDS011;8484;50.904;9.192;2022-08-21T02:35:10;5.20;;;4.70;;
16731;SDS011;8484;50.904;9.192;2022-08-21T02:37:46;7.60;;;5.73;;
16731;SDS011;8484;50.904;9.192;2022-08-21T02:40:16;6.67;;;6.00;;
16731;SDS011;8484;50.904;9.192;2022-08-21T02:42:45;7.60;;;6.60;;
16731;SDS011;8484;50.904;9.192;2022-08-21T02:45:13;7.77;;;6.93;;
16731;SDS011;8484;50.904;9.192;2022-08-21T02:47:46;7.30;;;6.27;;
16731;SDS011;8484;50.904;9.192;2022-08-21T02:50:16;7.13;;;6.43;;
16731;SDS011;8484;50.904;9.192;2022-08-21T02:52:44;7.77;;;6.73;;
16731;SDS011;8484;50.904;9.192;2022-08-21T02:55:11;7.47;;;6.77;;
16731;SDS011;8484;50.904;9.192;2022-08-21T02:57:38;8.23;;;7.20;;
16731;SDS011;8484;50.904;9.192;2022-08-21T03:00:05;8.00;;;7.20;;
16731;SDS011;8484;50.904;9.192;2022-08-21T03:02:35;8.67;;;6.73;;
16731;SDS011;8484;50.904;9.192;2022-08-21T03:05:02;7.83;;;6.23;;
16731;SDS011;8484;50.904;9.192;2022-08-21T03:07:30;6.90;;;6.20;;
16731;SDS011;8484;50.904;9.192;2022-08-21T03:09:57;7.33;;;5.90;;
16731;SDS011;8484;50.904;9.192;2022-08-21T03:12:24;5.80;;;5.30;;
16731;SDS011;8484;50.904;9.192;2022-08-21T03:14:51;6.00;;;5.30;;
16731;SDS011;8484;50.904;9.192;2022-08-21T03:17:18;7.00;;;5.47;;
16731;SDS011;8484;50.904;9.192;2022-08-21T03:19:46;5.70;;;5.20;;
16731;SDS011;8484;50.904;9.192;2022-08-21T03:22:13;5.57;;;5.00;;
16731;SDS011;8484;50.904;9.192;2022-08-21T03:24:40;5.93;;;4.73;;
16731;SDS011;8484;50.904;9.192;2022-08-21T03:27:06;5.13;;;4.63;;
16731;SDS011;8484;50.904;9.192;2022-08-21T03:29:33;6.47;;;4.47;;
16731;SDS011;8484;50.904;9.192;2022-08-21T03:32:00;6.20;;;4.60;;
16731;SDS011;8484;50.904;9.192;2022-08-21T03:34:27;7.07;;;5.00;;
16731;SDS011;8484;50.904;9.192;2022-08-21T03:36:56;5.77;;;5.27;;
16731;SDS011;8484;50.904;9.192;2022-08-21T03:39:23;7.33;;;5.73;;
16731;SDS011;8484;50.904;9.192;2022-08-21T03:41:50;7.33;;;5.90;;
16731;SDS011;8484;50.904;9.192;2022-08-21T03:44:18;7.27;;;6.17;;
16731;SDS011;8484;50.904;9.192;2022-08-21T03:46:44;6.33;;;5.77;;
16731;SDS011;8484;50.904;9.192;2022-08-21T03:49:11;6.50;;;5.80;;
16731;SDS011;8484;50.904;9.192;2022-08-21T03:51:38;6.07;;;5.47;;
16731;SDS011;8484;50.904;9.192;2022-08-21T03:54:06;5.97;;;5.30;;
16731;SDS011;8484;50.904;9.192;2022-08-21T03:56:33;5.67;;;5.00;;
16731;SDS011;8484;50.904;9.192;2022-08-21T03:59:00;5.20;;;4.70;;
16731;SDS011;8484;50.904;9.192;2022-08-21T04:01:27;5.60;;;5.10;;
16731;SDS011;8484;50.904;9.192;2022-08-21T04:03:54;5.10;;;4.60;;
16731;SDS011;8484;50.904;9.192;2022-08-21T04:06:21;5.30;;;4.80;;
16731;SDS011;8484;50.904;9.192;2022-08-21T04:08:48;4.77;;;4.37;;
16731;SDS011;8484;50.904;9.192;2022-08-21T04:11:16;5.50;;;5.00;;
16731;SDS011;8484;50.904;9.192;2022-08-21T04:13:43;5.33;;;4.83;;
16731;SDS011;8484;50.904;9.192;2022-08-21T04:16:10;5.03;;;4.63;;
16731;SDS011;8484;50.904;9.192;2022-08-21T04:18:37;4.97;;;4.50;;
16731;SDS011;8484;50.904;9.192;2022-08-21T04:21:05;5.13;;;4.53;;
16731;SDS011;8484;50.904;9.192;2022-08-21T04:23:35;5.17;;;4.67;;
16731;SDS011;8484;50.904;9.192;2022-08-21T04:26:02;5.93;;;5.10;;
16731;SDS011;8484;50.904;9.192;2022-08-21T04:28:30;5.00;;;4.50;;
16731;SDS011;8484;50.904;9.192;2022-08-21T04:30:57;5.53;;;4.70;;
16731;SDS011;8484;50.904;9.192;2022-08-21T04:33:24;5.40;;;4.90;;
16731;SDS011;8484;50.904;9.192;2022-08-21T04:35:51;5.47;;;4.97;;
16731;SDS011;8484;50.904;9.192;2022-08-21T04:38:18;5.50;;;5.10;;
16731;SDS011;8484;50.904;9.192;2022-08-21T04:40:47;5.53;;;5.03;;
16731;SDS011;8484;50.904;9.192;2022-08-21T04:43:14;5.50;;;5.00;;
16731;SDS011;8484;50.904;9.192;2022-08-21T04:45:46;9.90;;;6.40;;
16731;SDS011;8484;50.904;9.192;2022-08-21T04:48:14;6.17;;;5.47;;
16731;SDS011;8484;50.904;9.192;2022-08-21T04:50:45;7.00;;;6.30;;
16731;SDS011;8484;50.904;9.192;2022-08-21T04:53:16;6.73;;;6.13;;
16731;SDS011;8484;50.904;9.192;2022-08-21T04:55:46;8.40;;;6.70;;
16731;SDS011;8484;50.904;9.192;2022-08-21T04:58:14;7.73;;;7.03;;
16731;SDS011;8484;50.904;9.192;2022-08-21T05:00:45;7.90;;;7.13;;
16731;SDS011;8484;50.904;9.192;2022-08-21T05:03:13;8.50;;;7.57;;
16731;SDS011;8484;50.904;9.192;2022-08-21T05:05:42;10.03;;;7.53;;
16731;SDS011;8484;50.904;9.192;2022-08-21T05:08:09;8.73;;;7.83;;
16731;SDS011;8484;50.904;9.192;2022-08-21T05:10:40;8.73;;;7.83;;
16731;SDS011;8484;50.904;9.192;2022-08-21T05:13:09;8.07;;;7.30;;
16731;SDS011;8484;50.904;9.192;2022-08-21T05:15:37;8.67;;;7.77;;
16731;SDS011;8484;50.904;9.192;2022-08-21T05:18:06;7.93;;;7.13;;
16731;SDS011;8484;50.904;9.192;2022-08-21T05:20:32;10.47;;;8.13;;
16731;SDS011;8484;50.904;9.192;2022-08-21T05:22:59;8.93;;;7.47;;
16731;SDS011;8484;50.904;9.192;2022-08-21T05:25:27;11.57;;;7.20;;
16731;SDS011;8484;50.904;9.192;2022-08-21T05:27:54;7.87;;;6.97;;
16731;SDS011;8484;50.904;9.192;2022-08-21T05:30:21;6.87;;;6.10;;
16731;SDS011;8484;50.904;9.192;2022-08-21T05:32:48;7.53;;;6.63;;
16731;SDS011;8484;50.904;9.192;2022-08-21T05:35:16;6.40;;;5.80;;
16731;SDS011;8484;50.904;9.192;2022-08-21T05:37:43;7.10;;;6.23;;
16731;SDS011;8484;50.904;9.192;2022-08-21T05:40:10;6.97;;;6.27;;
16731;SDS011;8484;50.904;9.192;2022-08-21T05:42:37;7.50;;;6.80;;
16731;SDS011;8484;50.904;9.192;2022-08-21T05:45:04;6.77;;;6.00;;
16731;SDS011;8484;50.904;9.192;2022-08-21T05:47:32;5.67;;;5.17;;
16731;SDS011;8484;50.904;9.192;2022-08-21T05:49:59;5.03;;;4.63;;
16731;SDS011;8484;50.904;9.192;2022-08-21T05:52:27;5.20;;;4.70;;
16731;SDS011;8484;50.904;9.192;2022-08-21T05:54:54;5.73;;;5.17;;
16731;SDS011;8484;50.904;9.192;2022-08-21T05:57:21;5.83;;;5.23;;
16731;SDS011;8484;50.904;9.192;2022-08-21T05:59:50;5.70;;;5.17;;
16731;SDS011;8484;50.904;9.192;2022-08-21T06:02:17;5.43;;;4.93;;
16731;SDS011;8484;50.904;9.192;2022-08-21T06:04:45;5.80;;;5.00;;
16731;SDS011;8484;50.904;9.192;2022-08-21T06:07:13;5.10;;;4.60;;
16731;SDS011;8484;50.904;9.192;2022-08-21T06:09:41;5.20;;;4.70;;
16731;SDS011;8484;50.904;9.192;2022-08-21T06:12:09;4.40;;;4.00;;
16731;SDS011;8484;50.904;9.192;2022-08-21T06:14:37;4.80;;;4.40;;
16731;SDS011;8484;50.904;9.192;2022-08-21T06:17:07;4.17;;;3.43;;
16731;SDS011;8484;50.904;9.192;2022-08-21T06:19:35;3.80;;;3.50;;
16731;SDS011;8484;50.904;9.192;2022-08-21T06:22:03;4.30;;;3.80;;
16731;SDS011;8484;50.904;9.192;2022-08-21T06:24:30;5.50;;;3.77;;
16731;SDS011;8484;50.904;9.192;2022-08-21T06:27:03;4.30;;;3.90;;
16731;SDS011;8484;50.904;9.192;2022-08-21T06:29:30;3.90;;;3.60;;
16731;SDS011;8484;50.904;9.192;2022-08-21T06:31:57;3.77;;;3.47;;
16731;SDS011;8484;50.904;9.192;2022-08-21T06:34:24;3.20;;;3.00;;
16731;SDS011;8484;50.904;9.192;2022-08-21T06:36:51;4.17;;;3.50;;
16731;SDS011;8484;50.904;9.192;2022-08-21T06:39:18;3.10;;;2.90;;
16731;SDS011;8484;50.904;9.192;2022-08-21T06:41:45;3.10;;;2.90;;
16731;SDS011;8484;50.904;9.192;2022-08-21T06:44:15;3.33;;;3.03;;
16731;SDS011;8484;50.904;9.192;2022-08-21T06:46:42;3.27;;;2.97;;
16731;SDS011;8484;50.904;9.192;2022-08-21T06:49:09;3.27;;;3.07;;
16731;SDS011;8484;50.904;9.192;2022-08-21T06:51:36;3.57;;;3.27;;
16731;SDS011;8484;50.904;9.192;2022-08-21T06:54:03;3.73;;;3.30;;
16731;SDS011;8484;50.904;9.192;2022-08-21T06:56:30;6.60;;;3.43;;
16731;SDS011;8484;50.904;9.192;2022-08-21T06:58:58;3.83;;;3.03;;
16731;SDS011;8484;50.904;9.192;2022-08-21T07:01:26;3.50;;;3.20;;
16731;SDS011;8484;50.904;9.192;2022-08-21T07:03:53;3.60;;;3.30;;
16731;SDS011;8484;50.904;9.192;2022-08-21T07:06:20;3.53;;;3.10;;
16731;SDS011;8484;50.904;9.192;2022-08-21T07:08:47;3.33;;;3.03;;
16731;SDS011;8484;50.904;9.192;2022-08-21T07:11:19;3.20;;;2.90;;
16731;SDS011;8484;50.904;9.192;2022-08-21T07:13:47;3.40;;;3.10;;
16731;SDS011;8484;50.904;9.192;2022-08-21T07:16:16;6.03;;;2.90;;
16731;SDS011;8484;50.904;9.192;2022-08-21T07:18:44;3.50;;;3.03;;
16731;SDS011;8484;50.904;9.192;2022-08-21T07:21:11;3.63;;;3.33;;
16731;SDS011;8484;50.904;9.192;2022-08-21T07:23:39;3.23;;;3.00;;
16731;SDS011;8484;50.904;9.192;2022-08-21T07:26:08;3.33;;;3.03;;
16731;SDS011;8484;50.904;9.192;2022-08-21T07:28:35;4.23;;;3.30;;
16731;SDS011;8484;50.904;9.192;2022-08-21T07:31:03;3.27;;;2.97;;
16731;SDS011;8484;50.904;9.192;2022-08-21T07:33:30;3.87;;;3.13;;
16731;SDS011;8484;50.904;9.192;2022-08-21T07:36:00;5.40;;;3.13;;
16731;SDS011;8484;50.904;9.192;2022-08-21T07:38:28;4.93;;;3.17;;
16731;SDS011;8484;50.904;9.192;2022-08-21T07:40:55;2.90;;;2.67;;
16731;SDS011;8484;50.904;9.192;2022-08-21T07:43:24;3.00;;;2.80;;
16731;SDS011;8484;50.904;9.192;2022-08-21T07:45:51;4.17;;;3.30;;
16731;SDS011;8484;50.904;9.192;2022-08-21T07:48:19;3.33;;;2.87;;
16731;SDS011;8484;50.904;9.192;2022-08-21T07:50:46;3.07;;;2.50;;
16731;SDS011;8484;50.904;9.192;2022-08-21T07:53:15;6.50;;;2.90;;
16731;SDS011;8484;50.904;9.192;2022-08-21T07:55:42;2.97;;;2.67;;
16731;SDS011;8484;50.904;9.192;2022-08-21T07:58:09;3.50;;;2.83;;
16731;SDS011;8484;50.904;9.192;2022-08-21T08:00:35;3.60;;;2.70;;
16731;SDS011;8484;50.904;9.192;2022-08-21T08:03:02;2.90;;;2.70;;
16731;SDS011;8484;50.904;9.192;2022-08-21T08:05:29;3.77;;;2.80;;
16731;SDS011;8484;50.904;9.192;2022-08-21T08:07:58;3.83;;;2.40;;
16731;SDS011;8484;50.904;9.192;2022-08-21T08:10:26;2.83;;;2.57;;
16731;SDS011;8484;50.904;9.192;2022-08-21T08:12:53;2.97;;;2.40;;
16731;SDS011;8484;50.904;9.192;2022-08-21T08:15:21;2.70;;;2.50;;
16731;SDS011;8484;50.904;9.192;2022-08-21T08:17:49;5.07;;;2.50;;
16731;SDS011;8484;50.904;9.192;2022-08-21T08:20:16;2.50;;;2.30;;
16731;SDS011;8484;50.904;9.192;2022-08-21T08:22:45;3.03;;;2.63;;
16731;SDS011;8484;50.904;9.192;2022-08-21T08:25:12;6.43;;;2.50;;
16731;SDS011;8484;50.904;9.192;2022-08-21T08:27:41;3.00;;;2.07;;
16731;SDS011;8484;50.904;9.192;2022-08-21T08:30:09;12.00;;;2.73;;
16731;SDS011;8484;50.904;9.192;2022-08-21T08:32:38;3.10;;;2.03;;
16731;SDS011;8484;50.904;9.192;2022-08-21T08:35:06;5.30;;;2.23;;
16731;SDS011;8484;50.904;9.192;2022-08-21T08:37:34;5.50;;;2.13;;
16731;SDS011;8484;50.904;9.192;2022-08-21T08:40:03;5.07;;;2.13;;
16731;SDS011;8484;50.904;9.192;2022-08-21T08:42:31;3.37;;;1.90;;
16731;SDS011;8484;50.904;9.192;2022-08-21T08:45:04;3.43;;;1.80;;
16731;SDS011;8484;50.904;9.192;2022-08-21T08:47:34;4.33;;;2.17;;
16731;SDS011;8484;50.904;9.192;2022-08-21T08:50:04;5.77;;;1.97;;
16731;SDS011;8484;50.904;9.192;2022-08-21T08:52:36;5.17;;;1.73;;
16731;SDS011;8484;50.904;9.192;2022-08-21T08:55:09;4.13;;;2.00;;
16731;SDS011;8484;50.904;9.192;2022-08-21T08:57:41;3.37;;;1.70;;
16731;SDS011;8484;50.904;9.192;2022-08-21T09:00:15;4.57;;;1.90;;
16731;SDS011;8484;50.904;9.192;2022-08-21T09:02:45;6.77;;;2.07;;
16731;SDS011;8484;50.904;9.192;2022-08-21T09:05:17;6.07;;;2.00;;
16731;SDS011;8484;50.904;9.192;2022-08-21T09:07:53;5.00;;;1.70;;
16731;SDS011;8484;50.904;9.192;2022-08-21T09:10:34;3.47;;;1.67;;
16731;SDS011;8484;50.904;9.192;2022-08-21T09:13:11;3.63;;;1.60;;
16731;SDS011;8484;50.904;9.192;2022-08-21T09:15:50;4.37;;;1.80;;
16731;SDS011;8484;50.904;9.192;2022-08-21T09:18:26;4.70;;;1.70;;
16731;SDS011;8484;50.904;9.192;2022-08-21T09:21:07;4.00;;;1.70;;
16731;SDS011;8484;50.904;9.192;2022-08-21T09:23:43;2.93;;;1.67;;
16731;SDS011;8484;50.904;9.192;2022-08-21T09:26:19;3.07;;;1.33;;
16731;SDS011;8484;50.904;9.192;2022-08-21T09:28:48;3.13;;;1.60;;
16731;SDS011;8484;50.904;9.192;2022-08-21T09:31:22;3.03;;;1.50;;
16731;SDS011;8484;50.904;9.192;2022-08-21T09:33:59;5.83;;;1.40;;
16731;SDS011;8484;50.904;9.192;2022-08-21T09:36:31;5.33;;;1.70;;
16731;SDS011;8484;50.904;9.192;2022-08-21T09:39:02;6.20;;;1.67;;
16731;SDS011;8484;50.904;9.192;2022-08-21T09:41:31;5.60;;;1.90;;
16731;SDS011;8484;50.904;9.192;2022-08-21T09:44:00;7.33;;;1.80;;
16731;SDS011;8484;50.904;9.192;2022-08-21T09:46:29;4.50;;;1.50;;
16731;SDS011;8484;50.904;9.192;2022-08-21T09:48:57;4.37;;;1.63;;
16731;SDS011;8484;50.904;9.192;2022-08-21T09:51:27;4.90;;;1.60;;
16731;SDS011;8484;50.904;9.192;2022-08-21T09:53:56;3.23;;;1.47;;
16731;SDS011;8484;50.904;9.192;2022-08-21T09:56:37;3.90;;;1.33;;
16731;SDS011;8484;50.904;9.192;2022-08-21T09:59:25;5.57;;;1.43;;
16731;SDS011;8484;50.904;9.192;2022-08-21T10:01:57;4.93;;;1.50;;
16731;SDS011;8484;50.904;9.192;2022-08-21T10:04:28;4.93;;;1.57;;
16731;SDS011;8484;50.904;9.192;2022-08-21T10:07:05;3.47;;;1.40;;
16731;SDS011;8484;50.904;9.192;2022-08-21T10:09:33;3.20;;;1.47;;
16731;SDS011;8484;50.904;9.192;2022-08-21T10:12:06;3.27;;;1.23;;
16731;SDS011;8484;50.904;9.192;2022-08-21T10:14:49;5.33;;;1.63;;
16731;SDS011;8484;50.904;9.192;2022-08-21T10:17:25;3.37;;;1.60;;
16731;SDS011;8484;50.904;9.192;2022-08-21T10:19:56;3.47;;;1.30;;
16731;SDS011;8484;50.904;9.192;2022-08-21T10:22:31;4.33;;;1.50;;
16731;SDS011;8484;50.904;9.192;2022-08-21T10:25:06;3.60;;;1.40;;
16731;SDS011;8484;50.904;9.192;2022-08-21T10:27:41;2.57;;;1.30;;
16731;SDS011;8484;50.904;9.192;2022-08-21T10:30:14;2.20;;;1.20;;
16731;SDS011;8484;50.904;9.192;2022-08-21T10:32:50;4.03;;;1.20;;
16731;SDS011;8484;50.904;9.192;2022-08-21T10:35:30;2.50;;;1.30;;
16731;SDS011;8484;50.904;9.192;2022-08-21T10:38:04;2.50;;;1.20;;
16731;SDS011;8484;50.904;9.192;2022-08-21T10:40:53;3.97;;;1.30;;
16731;SDS011;8484;50.904;9.192;2022-08-21T10:43:25;2.23;;;1.20;;
16731;SDS011;8484;50.904;9.192;2022-08-21T10:46:00;3.10;;;1.57;;
16731;SDS011;8484;50.904;9.192;2022-08-21T10:48:35;2.50;;;1.30;;
16731;SDS011;8484;50.904;9.192;2022-08-21T10:51:05;2.40;;;1.30;;
16731;SDS011;8484;50.904;9.192;2022-08-21T10:53:44;2.97;;;1.40;;
16731;SDS011;8484;50.904;9.192;2022-08-21T10:56:17;2.50;;;1.20;;
16731;SDS011;8484;50.904;9.192;2022-08-21T10:58:49;2.53;;;1.30;;
16731;SDS011;8484;50.904;9.192;2022-08-21T11:01:27;2.03;;;1.13;;
16731;SDS011;8484;50.904;9.192;2022-08-21T11:04:03;3.17;;;1.17;;
16731;SDS011;8484;50.904;9.192;2022-08-21T11:06:37;1.67;;;1.10;;
16731;SDS011;8484;50.904;9.192;2022-08-21T11:09:09;3.70;;;1.30;;
16731;SDS011;8484;50.904;9.192;2022-08-21T11:11:39;2.60;;;1.10;;
16731;SDS011;8484;50.904;9.192;2022-08-21T11:14:17;2.73;;;1.23;;
16731;SDS011;8484;50.904;9.192;2022-08-21T11:16:52;2.60;;;1.00;;
16731;SDS011;8484;50.904;9.192;2022-08-21T11:19:28;2.47;;;1.20;;
16731;SDS011;8484;50.904;9.192;2022-08-21T11:22:00;2.20;;;1.03;;
16731;SDS011;8484;50.904;9.192;2022-08-21T11:24:35;2.60;;;1.27;;
16731;SDS011;8484;50.904;9.192;2022-08-21T11:27:09;1.67;;;0.90;;
16731;SDS011;8484;50.904;9.192;2022-08-21T11:29:46;2.53;;;1.10;;
16731;SDS011;8484;50.904;9.192;2022-08-21T11:32:30;1.57;;;0.83;;
16731;SDS011;8484;50.904;9.192;2022-08-21T11:35:07;2.20;;;0.90;;
16731;SDS011;8484;50.904;9.192;2022-08-21T11:37:45;1.00;;;0.70;;
16731;SDS011;8484;50.904;9.192;2022-08-21T11:40:29;3.67;;;1.27;;
16731;SDS011;8484;50.904;9.192;2022-08-21T11:43:05;1.67;;;0.90;;
16731;SDS011;8484;50.904;9.192;2022-08-21T11:45:38;2.83;;;1.13;;
16731;SDS011;8484;50.904;9.192;2022-08-21T11:48:11;4.40;;;1.17;;
16731;SDS011;8484;50.904;9.192;2022-08-21T11:50:48;2.27;;;1.00;;
16731;SDS011;8484;50.904;9.192;2022-08-21T11:53:16;1.90;;;1.20;;
16731;SDS011;8484;50.904;9.192;2022-08-21T11:55:50;1.67;;;1.00;;
16731;SDS011;8484;50.904;9.192;2022-08-21T11:58:22;3.63;;;1.00;;
16731;SDS011;8484;50.904;9.192;2022-08-21T12:00:53;1.70;;;0.90;;
16731;SDS011;8484;50.904;9.192;2022-08-21T12:03:23;2.03;;;0.90;;
16731;SDS011;8484;50.904;9.192;2022-08-21T12:05:54;2.93;;;1.20;;
16731;SDS011;8484;50.904;9.192;2022-08-21T12:08:28;2.10;;;1.00;;
16731;SDS011;8484;50.904;9.192;2022-08-21T12:11:00;3.40;;;1.10;;
16731;SDS011;8484;50.904;9.192;2022-08-21T12:13:31;1.77;;;1.00;;
16731;SDS011;8484;50.904;9.192;2022-08-21T12:16:07;1.30;;;0.73;;
16731;SDS011;8484;50.904;9.192;2022-08-21T12:18:36;3.10;;;1.23;;
16731;SDS011;8484;50.904;9.192;2022-08-21T12:21:16;1.50;;;0.90;;
16731;SDS011;8484;50.904;9.192;2022-08-21T12:23:47;2.40;;;1.10;;
16731;SDS011;8484;50.904;9.192;2022-08-21T12:26:21;2.63;;;1.00;;
16731;SDS011;8484;50.904;9.192;2022-08-21T12:29:02;2.37;;;0.90;;
16731;SDS011;8484;50.904;9.192;2022-08-21T12:31:31;2.93;;;1.17;;
16731;SDS011;8484;50.904;9.192;2022-08-21T12:34:01;1.83;;;0.90;;
16731;SDS011;8484;50.904;9.192;2022-08-21T12:36:38;1.90;;;0.90;;
16731;SDS011;8484;50.904;9.192;2022-08-21T12:39:14;3.67;;;1.07;;
16731;SDS011;8484;50.904;9.192;2022-08-21T12:41:45;2.03;;;1.03;;
16731;SDS011;8484;50.904;9.192;2022-08-21T12:44:16;3.67;;;1.00;;
16731;SDS011;8484;50.904;9.192;2022-08-21T12:46:50;1.00;;;0.80;;
16731;SDS011;8484;50.904;9.192;2022-08-21T12:49:23;2.73;;;1.00;;
16731;SDS011;8484;50.904;9.192;2022-08-21T12:51:57;2.70;;;1.10;;
16731;SDS011;8484;50.904;9.192;2022-08-21T12:54:31;1.83;;;0.90;;
16731;SDS011;8484;50.904;9.192;2022-08-21T12:57:03;1.70;;;0.93;;
16731;SDS011;8484;50.904;9.192;2022-08-21T12:59:31;1.80;;;0.70;;
16731;SDS011;8484;50.904;9.192;2022-08-21T13:01:59;1.17;;;0.80;;
16731;SDS011;8484;50.904;9.192;2022-08-21T13:04:32;2.50;;;0.93;;
16731;SDS011;8484;50.904;9.192;2022-08-21T13:07:07;2.40;;;1.20;;
16731;SDS011;8484;50.904;9.192;2022-08-21T13:09:39;2.50;;;1.10;;
16731;SDS011;8484;50.904;9.192;2022-08-21T13:12:10;1.47;;;0.77;;
16731;SDS011;8484;50.904;9.192;2022-08-21T13:14:39;1.20;;;0.73;;
16731;SDS011;8484;50.904;9.192;2022-08-21T13:17:09;1.90;;;0.73;;
16731;SDS011;8484;50.904;9.192;2022-08-21T13:19:37;3.50;;;1.03;;
16731;SDS011;8484;50.904;9.192;2022-08-21T13:22:05;3.33;;;1.10;;
16731;SDS011;8484;50.904;9.192;2022-08-21T13:24:40;2.60;;;0.70;;
16731;SDS011;8484;50.904;9.192;2022-08-21T13:27:20;2.33;;;1.00;;
16731;SDS011;8484;50.904;9.192;2022-08-21T13:30:00;1.23;;;0.80;;
16731;SDS011;8484;50.904;9.192;2022-08-21T13:32:30;1.63;;;0.90;;
16731;SDS011;8484;50.904;9.192;2022-08-21T13:35:06;2.87;;;1.10;;
16731;SDS011;8484;50.904;9.192;2022-08-21T13:37:36;1.50;;;0.77;;
16731;SDS011;8484;50.904;9.192;2022-08-21T13:40:06;2.43;;;0.90;;
16731;SDS011;8484;50.904;9.192;2022-08-21T13:42:38;1.47;;;0.70;;
16731;SDS011;8484;50.904;9.192;2022-08-21T13:45:11;1.63;;;0.80;;
16731;SDS011;8484;50.904;9.192;2022-08-21T13:47:40;2.27;;;0.73;;
16731;SDS011;8484;50.904;9.192;2022-08-21T13:50:08;1.23;;;0.90;;
16731;SDS011;8484;50.904;9.192;2022-08-21T13:52:46;1.57;;;0.93;;
16731;SDS011;8484;50.904;9.192;2022-08-21T13:55:19;3.00;;;0.90;;
16731;SDS011;8484;50.904;9.192;2022-08-21T13:57:46;2.93;;;0.80;;
16731;SDS011;8484;50.904;9.192;2022-08-21T14:00:14;1.80;;;0.90;;
16731;SDS011;8484;50.904;9.192;2022-08-21T14:02:43;1.37;;;0.53;;
16731;SDS011;8484;50.904;9.192;2022-08-21T14:05:14;3.83;;;0.67;;
16731;SDS011;8484;50.904;9.192;2022-08-21T14:07:47;1.60;;;0.80;;
16731;SDS011;8484;50.904;9.192;2022-08-21T14:10:18;1.73;;;0.80;;
16731;SDS011;8484;50.904;9.192;2022-08-21T14:12:47;1.30;;;0.70;;
16731;SDS011;8484;50.904;9.192;2022-08-21T14:15:18;1.80;;;0.70;;
16731;SDS011;8484;50.904;9.192;2022-08-21T14:17:50;0.80;;;0.60;;
16731;SDS011;8484;50.904;9.192;2022-08-21T14:20:25;1.40;;;0.80;;
16731;SDS011;8484;50.904;9.192;2022-08-21T14:22:56;3.10;;;0.70;;
16731;SDS011;8484;50.904;9.192;2022-08-21T14:25:28;1.17;;;0.77;;
16731;SDS011;8484;50.904;9.192;2022-08-21T14:27:58;1.90;;;0.90;;
16731;SDS011;8484;50.904;9.192;2022-08-21T14:30:33;2.53;;;1.00;;
16731;SDS011;8484;50.904;9.192;2022-08-21T14:33:03;1.60;;;0.80;;
16731;SDS011;8484;50.904;9.192;2022-08-21T14:35:34;3.17;;;0.80;;
16731;SDS011;8484;50.904;9.192;2022-08-21T14:38:02;1.67;;;0.83;;
16731;SDS011;8484;50.904;9.192;2022-08-21T14:40:37;1.67;;;0.87;;
16731;SDS011;8484;50.904;9.192;2022-08-21T14:43:04;1.73;;;0.77;;
16731;SDS011;8484;50.904;9.192;2022-08-21T14:45:30;2.30;;;0.70;;
16731;SDS011;8484;50.904;9.192;2022-08-21T14:47:58;1.20;;;0.67;;
16731;SDS011;8484;50.904;9.192;2022-08-21T14:50:25;1.63;;;0.87;;
16731;SDS011;8484;50.904;9.192;2022-08-21T14:52:52;1.70;;;0.83;;
16731;SDS011;8484;50.904;9.192;2022-08-21T14:55:20;2.30;;;0.93;;
16731;SDS011;8484;50.904;9.192;2022-08-21T14:57:48;2.37;;;1.00;;
16731;SDS011;8484;50.904;9.192;2022-08-21T15:00:19;2.50;;;0.90;;
16731;SDS011;8484;50.904;9.192;2022-08-21T15:02:48;2.77;;;0.80;;
16731;SDS011;8484;50.904;9.192;2022-08-21T15:05:15;2.47;;;0.90;;
16731;SDS011;8484;50.904;9.192;2022-08-21T15:07:42;1.33;;;0.80;;
16731;SDS011;8484;50.904;9.192;2022-08-21T15:10:10;1.53;;;0.70;;
16731;SDS011;8484;50.904;9.192;2022-08-21T15:12:39;1.17;;;0.70;;
16731;SDS011;8484;50.904;9.192;2022-08-21T15:15:06;2.00;;;1.03;;
16731;SDS011;8484;50.904;9.192;2022-08-21T15:17:35;20.37;;;18.57;;
16731;SDS011;8484;50.904;9.192;2022-08-21T15:20:03;13.87;;;12.73;;